ADDS METAR Data INFO
IDs: Format: Raw Decoded Include TAF

Data at: 1006 UTC 12 Dec 2017

KISN 120952Z AUTO A3018 RMK AO2 SLPNO PWINO FZRANO $
KISN 120852Z AUTO A3020 RMK AO2 SLPNO 58026 PWINO FZRANO $
KISN 120752Z AUTO A3024 RMK AO2 SLPNO PWINO FZRANO $
KISN 120652Z AUTO A3025 RMK AO2 SLPNO PWINO FZRANO $
KISN 120553Z 25003KT 10SM CLR M04/M06 A3028
KISN 120552Z AUTO A3028 RMK AO2 SLPNO 400611044 57016 PWINO FZRANO $
KISN 120453Z 27002KT 10SM SKC M04/M05 A3030
KISN 120452Z AUTO A3030 RMK AO2 SLPNO PWINO FZRANO $
KISN 120352Z AUTO A3031 RMK AO2 SLPNO PWINO FZRANO $
KISN 120252Z AUTO A3033 RMK AO2 SLPNO 56007 PWINO FZRANO $
KISN 120152Z AUTO 29003KT 10SM CLR M04/M06 A3033 RMK AO2 SLP299 T10441061
KISN 120052Z AUTO 29005KT 10SM CLR M03/M04 A3034 RMK AO2 SLP300 T10281044
KISN 120006Z AUTO 26004KT 10SM SCT028 00/M03 A3035 RMK AO2 T00001028
KISN 112352Z AUTO 27005KT 10SM OVC028 02/M02 A3035 RMK AO2 SLP302 T00171017 10033 20017 51003
KISN 112252Z AUTO 28004KT 10SM OVC027 02/M02 A3035 RMK AO2 SLP300 T00221017
KISN 112246Z AUTO 29004KT 10SM OVC027 02/M02 A3035 RMK AO2 T00221017
KISN 112152Z AUTO 33008KT 10SM OVC031 03/M02 A3035 RMK AO2 SLP298 T00281022
KISN 112052Z AUTO 35008KT 10SM OVC032 03/M02 A3034 RMK AO2 SLP295 T00331022 50005
KISN 112026Z AUTO 35011KT 10SM FEW025 OVC032 03/M03 A3035 RMK AO2 T00331028
KISN 111952Z AUTO 34013KT 10SM OVC028 03/M03 A3035 RMK AO2 SLP297 T00331028
KISN 111852Z AUTO 34014G20KT 10SM OVC021 03/M02 A3035 RMK AO2 SLP295 T00281022
KISN 111752Z AUTO 34008KT 10SM OVC018 02/M01 A3033 RMK AO2 SNE16 SLP290 P0000 60000 T00221006 10028 20017 53022
KISN 111709Z AUTO 32010KT 8SM -SN BKN021 OVC044 02/M01 A3032 RMK AO2 P0000 T00221006
KISN 111652Z AUTO 32011KT 6SM -SN SCT021 OVC045 02/M01 A3031 RMK AO2 UPB02E11SNB46 SLP283 P0000 T00221006
KISN 111610Z AUTO 32011KT 8SM UP OVC016 02/M01 A3028 RMK AO2 UPB02 P0000 T00171006
KISN 111552Z AUTO 33015G20KT 10SM OVC014 02/M01 A3028 RMK AO2 SLP274 T00171006
KISN 111525Z AUTO 34016G19KT 10SM OVC014 02/M01 A3027 RMK AO2 T00221006
KISN 111452Z AUTO 33010KT 10SM OVC016 02/M01 A3026 RMK AO2 SLP267 T00221011 51029
KISN 111352Z AUTO 33013KT 10SM OVC016 02/M01 A3024 RMK AO2 SLP259 T00221011
KISN 111252Z AUTO 33016G23KT 10SM OVC016 03/M01 A3021 RMK AO2 PK WND 33027/1154 SLP251 T00281011
KISN 111152Z AUTO 33022G29KT 10SM OVC017 03/M01 A3017 RMK AO2 PK WND 34034/1127 SLP235 T00281011 10061 20028 53031
KISN 111052Z AUTO 34025G38KT 10SM OVC021 03/M01 A3012 RMK AO2 PK WND 34038/1045 SLP218 T00281011
KISN 110952Z AUTO 33024G31KT 10SM BKN026 OVC032 03/M01 A3010 RMK AO2 PK WND 32039/0859 SLP209 T00331011
KISN 110900Z AUTO 32027G39KT 10SM OVC029 04/M02 A3008 RMK AO2 PK WND 32039/0859 T00441017
KISN 110852Z AUTO 33021G31KT 10SM OVC031 04/M01 A3007 RMK AO2 PK WND 32037/0825 SLP198 T00441011 53028
KISN 110752Z AUTO 32024G34KT 10SM OVC034 05/M01 A3003 RMK AO2 PK WND 33042/0714 SLP183 T00501011
KISN 110652Z AUTO 32029G40KT 10SM OVC035 06/M02 A3001 RMK AO2 PK WND 32040/0647 SLP175 T00561017
KISN 110552Z AUTO 32022G32KT 10SM BKN041 BKN050 06/M02 A2998 RMK AO2 PK WND 31033/0541 SLP168 T00561022 10061 20033 400781006 53001
KISN 110452Z AUTO 30022G31KT 10SM CLR 06/M03 A2997 RMK AO2 PK WND 30031/0432 SLP164 T00561033
KISN 110352Z AUTO 29016G23KT 10SM CLR 04/M06 A2997 RMK AO2 SLP168 T00441061
KISN 110252Z AUTO 28017KT 10SM BKN095 04/M07 A2998 RMK AO2 SLP172 T00441072 55008
KISN 110152Z AUTO 25013KT 10SM CLR 04/M07 A2997 RMK AO2 SLP168 T00441072
KISN 110052Z AUTO 27010KT 10SM CLR 04/M06 A2998 RMK AO2 SLP172 T00391061
KISN 102352Z AUTO 28012KT 10SM CLR 05/M06 A3000 RMK AO2 SLP177 T00501056 10078 20050 58011
KISN 102252Z AUTO 25013KT 10SM FEW120 07/M06 A3000 RMK AO2 PRESFR SLP178 T00671056